createdAt,value
2022-10-20T00:08:35.673Z,86.5
2022-10-20T00:18:35.729Z,86.5
2022-10-20T00:28:11.066Z,87.0
2022-10-20T00:38:11.120Z,87.0
2022-10-20T00:48:11.071Z,87.0
2022-10-20T00:58:11.072Z,87.0
2022-10-20T01:08:11.073Z,87.0
2022-10-20T01:18:11.080Z,87.5
2022-10-20T01:28:11.075Z,87.5
2022-10-20T01:38:11.081Z,87.5
2022-10-20T01:48:11.083Z,88.0
2022-10-20T01:58:11.086Z,88.0
2022-10-20T02:08:35.792Z,88.5
2022-10-20T02:18:35.766Z,88.5
2022-10-20T02:28:10.996Z,89.0
2022-10-20T02:38:11.103Z,89.5
2022-10-20T02:48:35.773Z,89.5
2022-10-20T02:58:11.109Z,90.0
2022-10-20T03:18:11.108Z,89.5
2022-10-20T03:28:11.108Z,90.5
2022-10-20T03:38:11.116Z,90.5
2022-10-20T03:48:11.115Z,91.0
2022-10-20T04:08:11.165Z,90.5
2022-10-20T04:18:11.043Z,90.5
2022-10-20T04:28:11.039Z,91.0
2022-10-20T04:38:11.039Z,91.0
2022-10-20T04:58:11.044Z,91.0
2022-10-20T05:08:35.769Z,91.0
2022-10-20T05:18:11.050Z,91.0
2022-10-20T05:28:11.053Z,91.0
2022-10-20T05:38:35.735Z,91.0
2022-10-20T05:48:38.355Z,91.0
2022-10-20T05:58:11.059Z,91.0
2022-10-20T06:08:11.079Z,91.0
2022-10-20T06:18:11.071Z,91.0
2022-10-20T06:28:35.746Z,91.5
2022-10-20T07:28:11.100Z,89.5
2022-10-20T07:38:11.104Z,89.0
2022-10-20T08:08:11.115Z,88.0
2022-10-20T08:28:11.131Z,87.5
2022-10-20T08:38:11.129Z,87.0
2022-10-20T08:48:11.130Z,86.5
2022-10-20T09:28:11.155Z,84.5
2022-10-20T09:38:11.152Z,84.5
2022-10-20T09:48:11.208Z,84.5
2022-10-20T09:58:14.989Z,84.0
2022-10-20T10:08:11.185Z,84.0
2022-10-20T10:18:11.172Z,84.0
2022-10-20T10:28:35.844Z,84.0
2022-10-20T10:38:11.198Z,83.5
2022-10-20T10:48:11.207Z,84.0
2022-10-20T11:08:11.192Z,84.5
2022-10-20T11:18:11.197Z,85.0
2022-10-20T11:28:11.219Z,86.0
2022-10-20T11:39:00.536Z,87.0
2022-10-20T11:48:35.873Z,88.5
2022-10-20T11:58:11.216Z,89.5
2022-10-20T12:08:29.278Z,91.5
2022-10-20T12:18:35.882Z,92.5
2022-10-20T12:28:11.216Z,94.0
2022-10-20T12:38:11.219Z,94.0
2022-10-20T12:48:11.224Z,94.0
2022-10-20T12:58:35.895Z,95.0
2022-10-20T13:08:11.242Z,94.5
2022-10-20T13:28:11.243Z,96.0
2022-10-20T13:38:11.253Z,96.0
2022-10-20T13:48:11.251Z,95.0
2022-10-20T13:58:11.259Z,94.5
2022-10-20T14:09:00.607Z,94.5
2022-10-20T14:19:00.605Z,95.0
2022-10-20T14:29:00.608Z,94.5
2022-10-20T14:38:11.392Z,93.0
2022-10-20T14:48:11.274Z,92.0
2022-10-20T14:58:11.292Z,92.0
2022-10-20T15:08:11.286Z,91.5
2022-10-20T15:18:11.292Z,91.5
2022-10-20T15:28:11.294Z,91.5
2022-10-20T15:38:35.965Z,91.5
2022-10-20T15:48:11.296Z,92.0
2022-10-20T15:58:11.298Z,92.5
2022-10-20T16:08:11.330Z,92.5
2022-10-20T16:18:11.310Z,92.5
2022-10-20T16:38:11.319Z,93.5
2022-10-20T16:48:11.321Z,93.5
2022-10-20T16:58:11.323Z,94.0
2022-10-20T17:08:11.325Z,94.0
2022-10-20T17:18:35.996Z,94.5
2022-10-20T17:28:11.326Z,94.5
2022-10-20T17:48:36.037Z,95.0
2022-10-20T17:58:36.016Z,95.0
2022-10-20T18:08:36.068Z,95.0
2022-10-20T18:18:11.348Z,95.0
2022-10-20T18:28:11.391Z,95.5
2022-10-20T18:38:36.023Z,95.5
2022-10-20T18:48:11.362Z,96.0
2022-10-20T18:58:11.357Z,96.0
2022-10-20T19:08:36.054Z,96.0
2022-10-20T19:18:11.371Z,96.0
2022-10-20T19:28:11.378Z,95.5
2022-10-20T19:38:11.377Z,95.5
2022-10-20T19:48:36.040Z,95.5
2022-10-20T19:58:11.381Z,95.5
2022-10-20T20:08:11.377Z,95.5
2022-10-20T20:18:36.054Z,95.5
2022-10-20T20:28:11.391Z,95.5
2022-10-20T20:48:11.405Z,96.0
2022-10-20T20:58:11.432Z,96.0
2022-10-20T21:08:11.397Z,96.5
2022-10-20T21:18:11.409Z,96.5
2022-10-20T21:28:11.417Z,96.5
2022-10-20T21:38:36.084Z,96.5
2022-10-20T21:58:11.418Z,97.0
2022-10-20T22:08:11.427Z,97.5
2022-10-20T22:18:11.429Z,97.5
2022-10-20T22:28:11.431Z,97.5
2022-10-20T22:38:11.439Z,97.5
2022-10-20T22:48:11.437Z,97.5
2022-10-20T22:58:11.448Z,97.5
2022-10-20T23:08:11.450Z,98.0
2022-10-20T23:18:11.454Z,97.5
2022-10-20T23:28:11.455Z,97.5
2022-10-20T23:38:11.454Z,98.0
2022-10-20T23:48:36.126Z,98.0
